Time;durP1;ratioP1;P1;durP2;ratioP2;P2;SDS_P1;SDS_P2;PMS_P1;PMS_P2;Temp;Humidity;BMP_temperature;BMP_pressure;BME280_temperature;BME280_humidity;BME280_pressure;Samples;Min_cycle;Max_cycle;Signal;HPM_P1;HPM_P2
2021/04/19 00:02:06;;;;;;;13.32;11.48;;;7.80;99.90;;;;;;4969761;28;20046;-70
2021/04/19 00:04:32;;;;;;;12.18;10.68;;;7.80;99.90;;;;;;4971503;28;20035;-70
2021/04/19 00:06:58;;;;;;;12.38;10.48;;;7.70;99.90;;;;;;4966966;28;20065;-70
2021/04/19 00:09:24;;;;;;;11.05;10.07;;;7.80;99.90;;;;;;4975115;28;20391;-70
2021/04/19 00:11:50;;;;;;;11.85;10.32;;;7.70;99.90;;;;;;4981489;28;20038;-70
2021/04/19 00:14:15;;;;;;;16.42;10.18;;;7.70;99.90;;;;;;4973778;28;20026;-70
2021/04/19 00:16:41;;;;;;;11.80;10.60;;;7.70;99.90;;;;;;4965044;28;20023;-70
2021/04/19 00:19:07;;;;;;;13.15;11.75;;;7.40;99.90;;;;;;4972278;28;20399;-70
2021/04/19 00:21:33;;;;;;;15.02;11.65;;;7.30;99.90;;;;;;4965854;28;20082;-70
2021/04/19 00:23:58;;;;;;;12.00;10.93;;;7.30;99.90;;;;;;4969858;28;20519;-70
2021/04/19 00:26:24;;;;;;;12.27;11.07;;;7.20;99.90;;;;;;4964220;28;20450;-70
2021/04/19 00:28:50;;;;;;;10.85;9.77;;;7.40;99.90;;;;;;4969081;28;20509;-70
2021/04/19 00:31:16;;;;;;;11.70;10.60;;;7.30;99.90;;;;;;4960989;28;20024;-70
2021/04/19 00:33:42;;;;;;;15.35;11.00;;;7.10;99.90;;;;;;4975140;28;20532;-69
2021/04/19 00:36:08;;;;;;;11.60;10.50;;;7.10;99.90;;;;;;4967042;28;20027;-70
2021/04/19 00:38:33;;;;;;;12.18;10.77;;;7.00;99.90;;;;;;4970578;28;20039;-70
2021/04/19 00:41:01;;;;;;;11.32;10.23;;;7.20;99.90;;;;;;4970346;28;20018;-69
2021/04/19 00:43:27;;;;;;;11.63;10.40;;;7.20;99.90;;;;;;4970712;28;20026;-70
2021/04/19 00:46:01;;;;;;;11.85;10.73;;;7.10;99.90;;;;;;4972334;28;20110;-71
2021/04/19 00:48:27;;;;;;;12.60;9.70;;;6.90;99.90;;;;;;4973072;28;20019;-70
2021/04/19 00:50:55;;;;;;;12.93;10.38;;;7.00;99.90;;;;;;4964339;28;20109;-72
2021/04/19 00:53:28;;;;;;;11.40;10.30;;;6.90;99.90;;;;;;4971810;28;20019;-71
2021/04/19 00:55:54;;;;;;;11.38;10.23;;;6.90;99.90;;;;;;4971449;28;20106;-72
2021/04/19 00:58:29;;;;;;;12.20;11.02;;;6.80;99.90;;;;;;4971145;28;20034;-72
2021/04/19 01:00:55;;;;;;;12.00;10.52;;;6.60;99.90;;;;;;4976129;28;20015;-72
2021/04/19 01:03:22;;;;;;;11.45;10.25;;;6.80;99.90;;;;;;4974827;28;20053;-72
2021/04/19 01:05:48;;;;;;;11.13;9.70;;;6.90;99.90;;;;;;4973277;28;20058;-72
2021/04/19 01:08:15;;;;;;;10.35;9.32;;;6.80;99.90;;;;;;4974854;28;20109;-72
2021/04/19 01:10:41;;;;;;;10.02;9.02;;;6.80;99.90;;;;;;4973199;28;20020;-72
2021/04/19 01:13:06;;;;;;;11.35;10.23;;;6.70;99.90;;;;;;4973747;28;20025;-72
2021/04/19 01:15:33;;;;;;;10.25;9.18;;;6.80;99.90;;;;;;4971704;28;20030;-71
2021/04/19 01:17:59;;;;;;;10.95;9.75;;;6.90;99.90;;;;;;4970849;28;20031;-72
2021/04/19 01:20:29;;;;;;;10.20;8.70;;;6.80;99.90;;;;;;4971905;28;20027;-72
2021/04/19 01:22:55;;;;;;;12.48;9.60;;;6.90;99.90;;;;;;4969088;28;20046;-72
2021/04/19 01:25:30;;;;;;;12.85;8.93;;;6.90;99.90;;;;;;4974152;28;20030;-72
2021/04/19 01:27:56;;;;;;;10.95;8.85;;;6.80;99.90;;;;;;4968881;28;20040;-72
2021/04/19 01:30:25;;;;;;;9.20;8.40;;;6.70;99.90;;;;;;4977375;28;20027;-72
2021/04/19 01:32:51;;;;;;;9.98;9.00;;;6.70;99.90;;;;;;4970877;28;20018;-72
2021/04/19 01:35:18;;;;;;;9.65;8.82;;;6.60;99.90;;;;;;4974141;28;20063;-71
2021/04/19 01:37:44;;;;;;;10.05;9.05;;;6.40;99.90;;;;;;4973885;28;20105;-72
2021/04/19 01:40:12;;;;;;;9.68;8.82;;;6.40;99.90;;;;;;4971460;28;20403;-72
2021/04/19 01:42:38;;;;;;;10.15;8.98;;;6.60;99.90;;;;;;4969230;28;20041;-72
2021/04/19 01:45:06;;;;;;;10.02;9.13;;;6.40;99.90;;;;;;4982192;28;20023;-72
2021/04/19 01:47:32;;;;;;;8.93;8.15;;;6.20;99.90;;;;;;4972692;28;20149;-72
2021/04/19 01:49:58;;;;;;;10.75;9.13;;;6.30;99.90;;;;;;4978148;28;20086;-72
2021/04/19 01:52:24;;;;;;;10.80;8.50;;;6.40;99.90;;;;;;4973386;28;20019;-72
2021/04/19 01:54:50;;;;;;;8.45;7.60;;;6.40;99.90;;;;;;4977423;28;20037;-72
2021/04/19 01:57:16;;;;;;;10.63;8.30;;;6.40;99.90;;;;;;4973781;28;20086;-72
2021/04/19 01:59:42;;;;;;;8.50;7.80;;;6.40;99.90;;;;;;4975841;28;20030;-72
2021/04/19 02:02:21;;;;;;;8.85;8.00;;;6.30;99.90;;;;;;4966670;28;20029;-72
2021/04/19 02:05:11;;;;;;;9.27;8.45;;;6.30;99.90;;;;;;4967947;28;20114;-72
2021/04/19 02:07:55;;;;;;;10.68;7.88;;;6.10;99.90;;;;;;4966534;28;20470;-72
2021/04/19 02:10:34;;;;;;;10.82;7.85;;;6.20;99.90;;;;;;4971004;28;20027;-72
2021/04/19 02:13:10;;;;;;;9.20;8.25;;;6.30;99.90;;;;;;4963041;28;20499;-72
2021/04/19 02:15:50;;;;;;;9.15;8.25;;;6.30;99.90;;;;;;4964240;28;20631;-72
2021/04/19 02:18:24;;;;;;;11.32;8.45;;;6.30;99.90;;;;;;4961290;28;20061;-72
2021/04/19 02:21:04;;;;;;;8.63;7.93;;;6.30;99.90;;;;;;4966074;28;20057;-72
2021/04/19 02:23:37;;;;;;;9.43;8.00;;;6.30;99.90;;;;;;4961634;28;20046;-72
2021/04/19 02:26:19;;;;;;;8.07;7.47;;;6.30;99.90;;;;;;4975149;28;20114;-71
2021/04/19 02:28:49;;;;;;;9.48;8.57;;;6.10;99.90;;;;;;4975030;28;20054;-72
2021/04/19 02:31:17;;;;;;;8.95;8.13;;;6.20;99.90;;;;;;4969865;28;20028;-71
2021/04/19 02:33:45;;;;;;;10.38;7.88;;;6.10;99.90;;;;;;4974699;28;20030;-72
2021/04/19 02:36:12;;;;;;;9.73;8.45;;;6.10;99.90;;;;;;4967331;28;20023;-72
2021/04/19 02:38:41;;;;;;;9.45;7.40;;;6.20;99.90;;;;;;4964311;28;20046;-72
2021/04/19 02:41:11;;;;;;;10.90;8.20;;;6.20;99.90;;;;;;4971616;28;20566;-72
2021/04/19 02:43:40;;;;;;;8.60;7.93;;;6.10;99.90;;;;;;4968955;28;20035;-72
2021/04/19 02:46:08;;;;;;;8.68;8.02;;;6.10;99.90;;;;;;4969337;28;20033;-71
2021/04/19 02:48:35;;;;;;;9.73;8.82;;;6.10;99.90;;;;;;4974427;28;20136;-72
2021/04/19 02:51:05;;;;;;;9.25;8.30;;;6.10;99.90;;;;;;4974451;28;20150;-72
2021/04/19 02:53:31;;;;;;;9.13;7.65;;;6.10;99.90;;;;;;4974161;28;20117;-72
2021/04/19 02:55:59;;;;;;;8.60;7.97;;;6.00;99.90;;;;;;4970624;28;20164;-72
2021/04/19 02:58:42;;;;;;;8.45;7.60;;;6.10;99.90;;;;;;4973291;28;20042;-72
2021/04/19 03:01:12;;;;;;;8.73;7.53;;;6.10;99.90;;;;;;4968128;28;20040;-72
2021/04/19 03:03:43;;;;;;;8.43;7.63;;;6.00;99.90;;;;;;4971257;28;20058;-72
2021/04/19 03:06:10;;;;;;;7.90;7.20;;;6.00;99.90;;;;;;4966382;28;20102;-71
2021/04/19 03:08:40;;;;;;;7.80;7.10;;;5.90;99.90;;;;;;4971668;28;20542;-72
2021/04/19 03:11:18;;;;;;;8.30;7.55;;;6.10;99.90;;;;;;4960065;28;20190;-72
2021/04/19 03:13:46;;;;;;;7.63;6.93;;;6.00;99.90;;;;;;4967900;28;20029;-71
2021/04/19 03:16:12;;;;;;;7.38;6.70;;;5.90;99.90;;;;;;4968582;28;20061;-72
2021/04/19 03:18:39;;;;;;;7.88;7.10;;;5.80;99.90;;;;;;4973094;28;20647;-72
2021/04/19 03:21:07;;;;;;;11.02;7.45;;;5.80;99.90;;;;;;4971970;28;20065;-71
2021/04/19 03:23:36;;;;;;;12.50;7.35;;;5.80;99.90;;;;;;4973093;28;20104;-71
2021/04/19 03:26:03;;;;;;;8.10;7.30;;;5.80;99.90;;;;;;4970572;28;20027;-72
2021/04/19 03:28:30;;;;;;;7.55;6.60;;;5.80;99.90;;;;;;4970889;28;20022;-71
2021/04/19 03:30:55;;;;;;;7.82;7.13;;;5.80;99.90;;;;;;4976644;28;20037;-72
2021/04/19 03:33:22;;;;;;;8.98;7.28;;;5.90;99.90;;;;;;4969371;28;20022;-72
2021/04/19 03:35:50;;;;;;;8.63;7.18;;;5.80;99.90;;;;;;4968495;28;20027;-72
2021/04/19 03:38:19;;;;;;;8.30;7.50;;;5.90;99.90;;;;;;4967244;28;20114;-72
2021/04/19 03:40:47;;;;;;;10.48;9.07;;;5.80;99.90;;;;;;4973619;28;20030;-72
2021/04/19 03:43:16;;;;;;;8.40;7.32;;;5.70;99.90;;;;;;4966549;28;20026;-72
2021/04/19 03:45:44;;;;;;;11.27;8.13;;;5.50;99.90;;;;;;4970072;28;20033;-72
2021/04/19 03:48:17;;;;;;;15.75;8.43;;;5.50;99.90;;;;;;4965708;28;20031;-72
2021/04/19 03:50:47;;;;;;;11.77;8.18;;;5.50;99.90;;;;;;4964316;28;20027;-72
2021/04/19 03:53:15;;;;;;;8.55;7.85;;;5.70;99.90;;;;;;4957507;28;20046;-72
2021/04/19 03:55:44;;;;;;;8.63;7.93;;;5.60;99.90;;;;;;4953293;28;20023;-72
2021/04/19 03:58:12;;;;;;;8.52;7.72;;;5.70;99.90;;;;;;4954944;28;20161;-71
2021/04/19 04:00:41;;;;;;;9.40;7.85;;;5.80;99.90;;;;;;4956924;28;20396;-71
2021/04/19 04:03:08;;;;;;;9.70;8.30;;;5.90;99.90;;;;;;4956614;28;20023;-72
2021/04/19 04:05:35;;;;;;;10.98;7.75;;;5.60;99.90;;;;;;4959711;28;20123;-72
2021/04/19 04:08:02;;;;;;;9.10;7.70;;;5.60;99.90;;;;;;4965609;28;20507;-72
2021/04/19 04:10:28;;;;;;;7.85;7.25;;;5.60;99.90;;;;;;4964821;28;20023;-72
2021/04/19 04:12:55;;;;;;;9.25;8.18;;;5.70;99.90;;;;;;4962691;28;20026;-71
2021/04/19 04:15:20;;;;;;;12.93;8.60;;;5.50;99.90;;;;;;4969986;28;20102;-71
2021/04/19 04:17:46;;;;;;;11.27;8.45;;;5.50;99.90;;;;;;4968891;28;20117;-72
2021/04/19 04:20:12;;;;;;;8.50;7.65;;;5.40;99.90;;;;;;4977498;28;20435;-71
2021/04/19 04:22:38;;;;;;;8.77;7.82;;;5.60;99.90;;;;;;4965800;28;20055;-71
2021/04/19 04:25:05;;;;;;;9.15;8.25;;;5.70;99.90;;;;;;4972900;28;20102;-72
2021/04/19 04:27:31;;;;;;;8.77;7.97;;;5.60;99.90;;;;;;4957877;28;20023;-72
2021/04/19 04:29:56;;;;;;;8.77;8.00;;;5.40;99.90;;;;;;4974693;28;20041;-72
2021/04/19 04:32:22;;;;;;;8.65;7.72;;;5.30;99.90;;;;;;4960573;28;20030;-71
2021/04/19 04:34:48;;;;;;;12.43;8.95;;;5.30;99.90;;;;;;4972165;28;20037;-71
2021/04/19 04:37:14;;;;;;;8.85;8.07;;;5.40;99.90;;;;;;4959146;28;20045;-72
2021/04/19 04:39:39;;;;;;;8.38;7.53;;;5.20;99.90;;;;;;4969742;28;20039;-72
2021/04/19 04:42:09;;;;;;;9.88;8.13;;;5.40;99.90;;;;;;4960664;28;20026;-71
2021/04/19 04:44:38;;;;;;;9.00;8.13;;;5.20;99.90;;;;;;4968046;28;20034;-71
2021/04/19 04:47:07;;;;;;;8.77;7.90;;;5.00;99.90;;;;;;4962170;28;20106;-71
2021/04/19 04:49:42;;;;;;;8.73;7.90;;;5.00;99.90;;;;;;4969545;28;20155;-71
2021/04/19 04:52:10;;;;;;;8.18;7.50;;;5.00;99.90;;;;;;4972619;28;20047;-71
2021/04/19 04:54:38;;;;;;;8.30;7.70;;;5.00;99.90;;;;;;4969972;28;20042;-71
2021/04/19 04:57:06;;;;;;;7.18;6.68;;;5.00;99.90;;;;;;4962207;28;20113;-71
2021/04/19 04:59:32;;;;;;;10.20;7.35;;;4.80;99.90;;;;;;4973876;28;20118;-71
2021/04/19 05:01:58;;;;;;;7.72;7.00;;;4.90;99.90;;;;;;4978908;28;20101;-72
2021/04/19 05:04:28;;;;;;;9.00;8.15;;;4.90;99.90;;;;;;4974508;28;20041;-71
2021/04/19 05:06:54;;;;;;;7.65;6.97;;;5.00;99.90;;;;;;4970155;28;20442;-71
2021/04/19 05:09:20;;;;;;;8.07;7.25;;;4.90;99.90;;;;;;4974225;28;20067;-71
2021/04/19 05:11:46;;;;;;;11.02;7.70;;;4.90;99.90;;;;;;4971558;28;20027;-71
2021/04/19 05:14:12;;;;;;;8.23;7.45;;;4.80;99.90;;;;;;4970682;28;20031;-72
2021/04/19 05:16:38;;;;;;;8.73;7.90;;;4.80;99.90;;;;;;4976401;28;20025;-72
2021/04/19 05:19:06;;;;;;;8.32;7.22;;;4.80;99.90;;;;;;4977546;28;20042;-72
2021/04/19 05:21:32;;;;;;;8.55;7.75;;;4.80;99.90;;;;;;4975485;28;20047;-72
2021/04/19 05:23:58;;;;;;;7.60;7.00;;;4.90;99.90;;;;;;4975007;28;20030;-69
2021/04/19 05:26:25;;;;;;;8.48;7.68;;;6.50;99.90;;;;;;4959315;28;20082;-69
2021/04/19 05:28:52;;;;;;;11.38;7.35;;;5.90;99.90;;;;;;4959218;28;20122;-69
2021/04/19 05:31:18;;;;;;;9.88;7.43;;;5.40;99.90;;;;;;4964756;28;20454;-69
2021/04/19 05:33:44;;;;;;;10.75;7.32;;;5.20;99.90;;;;;;4972307;28;20506;-69
2021/04/19 05:36:12;;;;;;;7.97;7.15;;;5.00;99.90;;;;;;4968051;28;20065;-69
2021/04/19 05:38:41;;;;;;;7.65;7.00;;;4.80;99.90;;;;;;4962667;28;20038;-69
2021/04/19 05:41:09;;;;;;;7.88;7.07;;;4.60;99.90;;;;;;4969485;28;20039;-69
2021/04/19 05:43:35;;;;;;;9.82;7.65;;;4.70;99.90;;;;;;4969410;28;20034;-69
2021/04/19 05:46:02;;;;;;;9.00;6.75;;;4.80;99.90;;;;;;4958739;28;20439;-69
2021/04/19 05:48:27;;;;;;;9.57;7.82;;;4.60;99.90;;;;;;4959720;28;20398;-69
2021/04/19 05:50:57;;;;;;;9.75;7.65;;;4.70;99.90;;;;;;4976371;28;20030;-69
2021/04/19 05:53:24;;;;;;;9.23;6.97;;;4.90;99.90;;;;;;4958738;28;20537;-69
2021/04/19 05:55:55;;;;;;;8.23;7.05;;;4.80;99.90;;;;;;4968275;28;20176;-69
2021/04/19 05:58:53;;;;;;;8.40;7.60;;;4.80;99.90;;;;;;4956659;28;20039;-69
2021/04/19 06:01:22;;;;;;;9.25;7.60;;;4.90;99.90;;;;;;4968180;28;20126;-69
2021/04/19 06:03:59;;;;;;;8.55;7.80;;;4.90;99.90;;;;;;4973067;28;20038;-69
2021/04/19 06:06:36;;;;;;;16.08;8.50;;;5.00;99.90;;;;;;4967448;28;20030;-69
2021/04/19 06:09:23;;;;;;;15.60;8.52;;;5.00;99.90;;;;;;4969961;28;20022;-69
2021/04/19 06:12:00;;;;;;;13.65;8.57;;;5.20;99.90;;;;;;4963659;28;20530;-69
2021/04/19 06:14:35;;;;;;;10.35;8.70;;;5.20;99.90;;;;;;4972363;28;20118;-69
2021/04/19 06:17:02;;;;;;;13.13;8.63;;;5.20;99.90;;;;;;4961725;28;20452;-69
2021/04/19 06:19:29;;;;;;;10.50;8.48;;;5.30;99.90;;;;;;4971619;28;20446;-69
2021/04/19 06:21:55;;;;;;;16.70;8.68;;;5.50;99.90;;;;;;4966674;28;20042;-69
2021/04/19 06:24:21;;;;;;;18.58;9.70;;;5.60;99.90;;;;;;4975108;28;20018;-69
2021/04/19 06:26:47;;;;;;;22.58;10.48;;;5.60;99.90;;;;;;4962379;28;20015;-70
2021/04/19 06:29:13;;;;;;;26.75;10.52;;;5.70;99.90;;;;;;4965984;28;20510;-69
2021/04/19 06:31:50;;;;;;;23.45;11.20;;;5.80;99.90;;;;;;4955488;28;20028;-69
2021/04/19 06:34:18;;;;;;;21.10;11.50;;;5.90;99.90;;;;;;4974735;28;20084;-67
2021/04/19 06:36:45;;;;;;;20.92;11.15;;;5.90;99.90;;;;;;4964376;28;20427;-69
2021/04/19 06:39:13;;;;;;;23.63;11.18;;;6.00;99.90;;;;;;4977039;28;20031;-69
2021/04/19 06:41:39;;;;;;;11.60;9.50;;;6.20;99.90;;;;;;4969689;28;20030;-70
2021/04/19 06:44:05;;;;;;;31.60;11.13;;;6.20;99.90;;;;;;4970112;28;20053;-70
2021/04/19 06:46:33;;;;;;;21.40;10.15;;;6.30;99.90;;;;;;4960512;28;20102;-70
2021/04/19 06:49:00;;;;;;;21.48;9.68;;;6.50;99.90;;;;;;4967117;28;20031;-69
2021/04/19 06:51:26;;;;;;;15.60;9.45;;;6.50;99.90;;;;;;4954205;28;20090;-69
2021/04/19 06:53:55;;;;;;;23.50;10.82;;;6.70;99.90;;;;;;4965644;28;20031;-70
2021/04/19 06:56:35;;;;;;;31.83;9.63;;;6.80;99.90;;;;;;4963316;28;20023;-70
2021/04/19 06:59:01;;;;;;;23.40;10.35;;;6.80;99.90;;;;;;4966399;28;20119;-69
2021/04/19 07:01:29;;;;;;;19.98;9.98;;;7.00;99.90;;;;;;4956793;28;20112;-70
2021/04/19 07:04:04;;;;;;;28.67;10.23;;;7.10;99.90;;;;;;4968200;28;20045;-69
2021/04/19 07:06:34;;;;;;;12.48;8.27;;;7.30;99.90;;;;;;4958238;28;20110;-70
2021/04/19 07:09:04;;;;;;;16.13;7.85;;;7.50;99.90;;;;;;4972594;28;20470;-69
2021/04/19 07:11:36;;;;;;;13.55;7.32;;;7.80;99.90;;;;;;4975886;28;20035;-70
2021/04/19 07:14:03;;;;;;;17.55;8.38;;;7.70;99.90;;;;;;4972219;28;20030;-70
2021/04/19 07:16:30;;;;;;;17.17;7.35;;;7.70;99.90;;;;;;4968296;28;20448;-69
2021/04/19 07:18:55;;;;;;;9.88;7.85;;;7.80;99.90;;;;;;4970984;28;20039;-70
2021/04/19 07:21:21;;;;;;;11.43;8.05;;;7.90;99.90;;;;;;4957339;28;20047;-69
2021/04/19 07:23:47;;;;;;;17.48;7.93;;;7.90;99.90;;;;;;4958751;28;20034;-71
2021/04/19 07:26:13;;;;;;;13.07;7.53;;;8.00;99.90;;;;;;4960549;28;20024;-70
2021/04/19 07:28:38;;;;;;;10.65;7.50;;;8.20;99.90;;;;;;4961109;28;20534;-71
2021/04/19 07:31:06;;;;;;;15.15;7.55;;;8.30;99.90;;;;;;4960551;28;20031;-70
2021/04/19 07:33:33;;;;;;;21.35;8.00;;;8.40;99.90;;;;;;4957250;28;20026;-69
2021/04/19 07:36:25;;;;;;;10.73;7.38;;;8.60;99.90;;;;;;4972346;28;20046;-68
2021/04/19 07:38:52;;;;;;;13.93;7.40;;;8.60;99.90;;;;;;4960308;28;20109;-70
2021/04/19 07:41:19;;;;;;;14.25;6.88;;;8.70;99.90;;;;;;4957862;28;20019;-70
2021/04/19 07:43:46;;;;;;;9.10;7.40;;;8.80;99.90;;;;;;4963100;28;20057;-70
2021/04/19 07:46:17;;;;;;;11.05;7.38;;;8.90;99.90;;;;;;4959007;28;20025;-73
2021/04/19 07:48:49;;;;;;;8.18;6.70;;;8.90;99.90;;;;;;4961745;28;20026;-69
2021/04/19 07:51:34;;;;;;;16.67;8.07;;;9.90;99.90;;;;;;4963360;28;20508;-71
2021/04/19 07:54:11;;;;;;;12.45;6.32;;;9.80;99.90;;;;;;4961778;28;20054;-71
2021/04/19 07:56:46;;;;;;;20.50;6.88;;;9.60;99.90;;;;;;4960584;28;20521;-72
2021/04/19 07:59:26;;;;;;;14.48;6.90;;;9.80;99.90;;;;;;4959760;28;20041;-70
2021/04/19 08:01:58;;;;;;;10.88;6.53;;;9.70;99.90;;;;;;4957755;28;20030;-71
2021/04/19 08:04:24;;;;;;;14.50;7.10;;;9.60;99.90;;;;;;4970031;28;20418;-69
2021/04/19 08:06:51;;;;;;;7.43;6.07;;;9.80;99.90;;;;;;4959229;28;20027;-70
2021/04/19 08:09:16;;;;;;;15.18;6.40;;;9.80;99.90;;;;;;4971491;28;20054;-71
2021/04/19 08:11:46;;;;;;;9.05;6.22;;;10.10;99.90;;;;;;4960990;28;20030;-71
2021/04/19 08:14:11;;;;;;;11.32;6.70;;;10.50;99.90;;;;;;4970036;28;20031;-71
2021/04/19 08:16:39;;;;;;;13.43;6.60;;;10.50;99.90;;;;;;4955935;28;20472;-70
2021/04/19 08:19:05;;;;;;;7.10;6.40;;;10.70;99.90;;;;;;4972365;28;20039;-72
2021/04/19 08:21:32;;;;;;;15.23;6.63;;;10.70;99.90;;;;;;4969979;28;20565;-70
2021/04/19 08:24:15;;;;;;;14.18;6.72;;;10.50;99.90;;;;;;4975373;28;20028;-72
2021/04/19 08:26:52;;;;;;;8.07;5.80;;;10.80;99.90;;;;;;4964698;28;20530;-71
2021/04/19 08:29:40;;;;;;;15.23;7.05;;;11.00;99.90;;;;;;4960922;28;20030;-71
2021/04/19 08:32:07;;;;;;;7.82;7.03;;;11.10;99.90;;;;;;4958544;28;20415;-72
2021/04/19 08:34:35;;;;;;;9.30;6.72;;;11.30;99.90;;;;;;4966623;28;20415;-71
2021/04/19 08:37:02;;;;;;;10.48;6.85;;;11.10;99.90;;;;;;4968773;28;20526;-71
2021/04/19 08:39:30;;;;;;;12.65;7.40;;;11.40;99.90;;;;;;4976486;28;20035;-69
2021/04/19 08:41:59;;;;;;;11.30;6.88;;;11.70;99.90;;;;;;4973618;28;20073;-72
2021/04/19 08:44:26;;;;;;;10.95;7.07;;;11.60;99.90;;;;;;4975990;28;20049;-68
2021/04/19 08:46:51;;;;;;;15.27;7.35;;;11.60;99.90;;;;;;4972743;28;20019;-71
2021/04/19 08:49:17;;;;;;;10.00;7.00;;;11.80;99.90;;;;;;4972391;28;20031;-72
2021/04/19 08:51:43;;;;;;;11.15;6.93;;;11.60;99.90;;;;;;4971425;28;20416;-71
2021/04/19 08:54:09;;;;;;;10.57;6.65;;;11.90;99.90;;;;;;4969570;28;20134;-72
2021/04/19 08:56:34;;;;;;;10.20;7.15;;;12.40;99.90;;;;;;4969495;28;20050;-71
2021/04/19 08:59:02;;;;;;;26.20;7.60;;;12.40;99.90;;;;;;4969628;28;20047;-70
2021/04/19 09:01:31;;;;;;;14.35;7.60;;;12.40;99.90;;;;;;4968164;28;20422;-72
2021/04/19 09:04:06;;;;;;;8.75;6.72;;;12.10;99.90;;;;;;4965136;28;20042;-72
2021/04/19 09:06:47;;;;;;;12.27;7.63;;;12.40;99.90;;;;;;4958106;28;20026;-66
2021/04/19 09:09:32;;;;;;;12.82;7.30;;;12.60;99.90;;;;;;4968827;28;20028;-72
2021/04/19 09:12:10;;;;;;;17.77;7.85;;;12.50;99.90;;;;;;4962068;28;20027;-73
2021/04/19 09:14:38;;;;;;;15.07;7.15;;;12.70;99.90;;;;;;4972024;28;20118;-71
2021/04/19 09:17:04;;;;;;;16.30;6.80;;;12.70;99.90;;;;;;4970048;28;20566;-71
2021/04/19 09:19:30;;;;;;;9.98;6.80;;;13.10;99.90;;;;;;4971609;28;20118;-70
2021/04/19 09:22:10;;;;;;;11.98;6.45;;;13.60;99.90;;;;;;4971856;28;20467;-71
2021/04/19 09:25:01;;;;;;;7.97;6.82;;;13.40;99.90;;;;;;4972292;28;20031;-72
2021/04/19 09:27:52;;;;;;;8.88;6.80;;;13.20;99.90;;;;;;4972241;28;20085;-72
2021/04/19 09:30:27;;;;;;;9.80;6.93;;;13.50;99.90;;;;;;4983879;28;20085;-72
2021/04/19 09:33:21;;;;;;;16.00;7.68;;;13.20;99.90;;;;;;4966170;28;20031;-72
2021/04/19 09:35:49;;;;;;;15.50;7.25;;;13.60;99.90;;;;;;4972688;28;20031;-71
2021/04/19 09:38:33;;;;;;;7.50;6.68;;;13.60;99.90;;;;;;4959002;28;20062;-72
2021/04/19 09:41:03;;;;;;;21.23;7.97;;;14.10;99.90;;;;;;4961926;28;20061;-71
2021/04/19 09:43:41;;;;;;;10.77;7.32;;;14.20;99.50;;;;;;4960176;28;20046;-71
2021/04/19 09:46:16;;;;;;;12.15;7.53;;;14.10;99.10;;;;;;4960775;28;20109;-72
2021/04/19 09:48:52;;;;;;;10.60;7.23;;;14.60;98.00;;;;;;4964261;28;20031;-72
2021/04/19 09:51:40;;;;;;;8.82;7.78;;;14.70;99.00;;;;;;4962675;28;20257;-68
2021/04/19 09:54:12;;;;;;;11.50;7.13;;;14.50;98.40;;;;;;4961902;28;20038;-71
2021/04/19 09:56:54;;;;;;;9.45;7.10;;;14.60;99.10;;;;;;4960835;28;20034;-71
2021/04/19 09:59:27;;;;;;;7.75;6.95;;;15.20;97.30;;;;;;4963746;28;20122;-71
2021/04/19 10:01:55;;;;;;;8.88;7.28;;;15.10;97.70;;;;;;4970835;28;20030;-71
2021/04/19 10:04:21;;;;;;;14.75;7.35;;;15.10;96.80;;;;;;4978905;28;20022;-71
2021/04/19 10:06:52;;;;;;;8.68;7.47;;;15.10;97.80;;;;;;4964637;28;20455;-72
2021/04/19 10:09:27;;;;;;;9.82;6.97;;;15.30;97.00;;;;;;4973545;28;20034;-72
2021/04/19 10:11:59;;;;;;;17.98;8.00;;;15.60;98.30;;;;;;4972269;28;20073;-71
2021/04/19 10:14:26;;;;;;;17.75;7.55;;;16.10;96.30;;;;;;4973523;28;20114;-70
2021/04/19 10:16:52;;;;;;;10.35;7.57;;;15.30;95.80;;;;;;4960077;28;20015;-72
2021/04/19 10:19:31;;;;;;;8.48;6.85;;;15.70;95.90;;;;;;4974420;28;20045;-72
2021/04/19 10:22:04;;;;;;;7.32;6.72;;;15.40;96.30;;;;;;4967607;28;20507;-73
2021/04/19 10:24:32;;;;;;;10.98;7.03;;;16.00;95.30;;;;;;4973820;28;20031;-68
2021/04/19 10:26:58;;;;;;;7.03;6.43;;;16.30;95.50;;;;;;4970637;28;20015;-70
2021/04/19 10:29:27;;;;;;;9.18;7.03;;;16.50;95.30;;;;;;4973019;28;20030;-71
2021/04/19 10:31:57;;;;;;;11.02;7.93;;;16.90;94.80;;;;;;4969814;28;20063;-71
2021/04/19 10:34:28;;;;;;;9.77;7.22;;;16.50;95.10;;;;;;4972050;28;20062;-71
2021/04/19 10:37:04;;;;;;;7.93;7.22;;;16.70;94.30;;;;;;4960392;28;20019;-76
2021/04/19 10:39:35;;;;;;;9.27;7.38;;;16.20;92.50;;;;;;4968453;28;20049;-63
2021/04/19 10:42:05;;;;;;;6.97;6.38;;;16.00;93.00;;;;;;4958450;28;20755;-63
2021/04/19 10:44:36;;;;;;;9.60;7.10;;;16.40;93.80;;;;;;4971687;28;20044;-63
2021/04/19 10:47:04;;;;;;;8.52;6.40;;;16.50;92.60;;;;;;4961545;28;20111;-63
2021/04/19 10:49:30;;;;;;;9.43;6.25;;;16.60;93.80;;;;;;4965178;28;20066;-64
2021/04/19 10:51:58;;;;;;;5.72;5.18;;;16.70;92.10;;;;;;4963857;28;20066;-64
2021/04/19 10:54:40;;;;;;;21.73;5.60;;;17.20;92.10;;;;;;4966818;28;20084;-63
2021/04/19 10:57:07;;;;;;;7.82;7.07;;;17.40;91.90;;;;;;4957029;28;20027;-64
2021/04/19 10:59:33;;;;;;;6.90;6.40;;;17.30;90.60;;;;;;4967667;28;20169;-63
2021/04/19 11:02:06;;;;;;;6.15;5.40;;;16.80;91.00;;;;;;4961520;28;20019;-63
2021/04/19 11:04:33;;;;;;;10.23;6.47;;;16.70;91.40;;;;;;4965135;28;20498;-64
2021/04/19 11:07:27;;;;;;;7.70;5.90;;;16.90;90.00;;;;;;4970355;28;20495;-64
2021/04/19 11:10:11;;;;;;;7.80;6.05;;;17.10;90.40;;;;;;4965185;28;20031;-64
2021/04/19 11:12:37;;;;;;;8.57;5.65;;;17.40;89.70;;;;;;4961409;28;20031;-63
2021/04/19 11:15:10;;;;;;;12.45;5.88;;;17.50;91.00;;;;;;4978914;28;20036;-64
2021/04/19 11:17:36;;;;;;;6.35;5.40;;;18.20;90.30;;;;;;4982259;28;20031;-63
2021/04/19 11:20:25;;;;;;;14.40;6.13;;;18.20;90.50;;;;;;4977676;28;20034;-63
2021/04/19 11:22:51;;;;;;;9.15;5.90;;;17.60;88.30;;;;;;4961423;28;20050;-63
2021/04/19 11:25:24;;;;;;;9.68;6.50;;;18.00;89.40;;;;;;4975189;28;20031;-63
2021/04/19 11:27:51;;;;;;;7.57;5.88;;;17.70;88.80;;;;;;4966349;28;20023;-63
2021/04/19 11:30:20;;;;;;;6.72;5.70;;;18.30;87.60;;;;;;4968004;28;20062;-63
2021/04/19 11:32:46;;;;;;;8.48;6.45;;;18.90;88.60;;;;;;4970605;28;20023;-64
2021/04/19 11:35:25;;;;;;;7.43;6.72;;;18.70;84.70;;;;;;4968891;28;20039;-63
2021/04/19 11:37:59;;;;;;;6.63;6.03;;;18.00;87.20;;;;;;4959773;28;20030;-64
2021/04/19 11:40:46;;;;;;;6.90;6.30;;;18.50;86.40;;;;;;4970447;28;20543;-64
2021/04/19 11:43:32;;;;;;;6.80;6.10;;;18.70;84.30;;;;;;4968928;28;20042;-64
2021/04/19 11:46:08;;;;;;;9.65;5.50;;;18.30;85.80;;;;;;4963955;28;20035;-63
2021/04/19 11:48:37;;;;;;;7.75;6.32;;;19.30;84.90;;;;;;4973871;28;20408;-63
2021/04/19 11:51:07;;;;;;;5.93;5.32;;;19.40;85.80;;;;;;4964580;28;20138;-64
2021/04/19 11:53:36;;;;;;;18.55;6.53;;;20.10;86.10;;;;;;4960483;28;20027;-64
2021/04/19 11:56:04;;;;;;;7.82;5.85;;;19.70;83.00;;;;;;4962742;28;20014;-63
2021/04/19 11:58:30;;;;;;;10.30;5.07;;;19.50;83.20;;;;;;4957017;28;20571;-63
2021/04/19 12:00:55;;;;;;;5.43;4.93;;;19.70;83.00;;;;;;4961954;28;20031;-63
2021/04/19 12:03:22;;;;;;;9.10;5.85;;;19.70;83.00;;;;;;4957688;28;20037;-63
2021/04/19 12:05:48;;;;;;;6.22;5.55;;;20.20;81.00;;;;;;4978352;28;20507;-63
2021/04/19 12:08:13;;;;;;;6.63;5.97;;;19.80;80.20;;;;;;4963152;28;20158;-63
2021/04/19 12:10:40;;;;;;;10.40;5.82;;;19.20;80.00;;;;;;4981055;28;20109;-63
2021/04/19 12:13:06;;;;;;;27.80;6.35;;;19.90;81.80;;;;;;4961311;28;20368;-63
2021/04/19 12:15:32;;;;;;;10.60;6.65;;;20.20;81.60;;;;;;4974891;28;20022;-63
2021/04/19 12:17:58;;;;;;;10.93;6.05;;;19.40;79.10;;;;;;4970059;28;20109;-63
2021/04/19 12:20:24;;;;;;;10.73;6.13;;;19.80;79.50;;;;;;4969670;28;20158;-63
2021/04/19 12:22:50;;;;;;;10.95;6.13;;;20.10;80.70;;;;;;4960944;28;20399;-63
2021/04/19 12:25:16;;;;;;;7.00;5.90;;;20.30;79.00;;;;;;4967442;28;20033;-63
2021/04/19 12:27:43;;;;;;;8.30;6.32;;;19.00;79.10;;;;;;4953869;28;20030;-64
2021/04/19 12:30:10;;;;;;;6.47;5.70;;;19.60;80.20;;;;;;4957914;28;20027;-64
2021/04/19 12:32:36;;;;;;;6.70;5.10;;;20.70;80.10;;;;;;4952796;28;20030;-64
2021/04/19 12:35:02;;;;;;;6.38;5.78;;;20.60;79.10;;;;;;4961630;28;20031;-63
2021/04/19 12:37:28;;;;;;;7.80;6.20;;;21.20;80.80;;;;;;4954465;28;20022;-63
2021/04/19 12:39:54;;;;;;;6.93;5.80;;;21.50;77.80;;;;;;4974882;28;20041;-64
2021/04/19 12:42:19;;;;;;;8.40;5.88;;;21.40;77.60;;;;;;4969845;28;20411;-64
2021/04/19 12:44:45;;;;;;;6.55;5.43;;;21.20;77.50;;;;;;4974625;28;20058;-64
2021/04/19 12:47:11;;;;;;;8.30;6.03;;;21.60;79.10;;;;;;4969487;28;20055;-64
2021/04/19 12:49:38;;;;;;;9.15;5.63;;;21.00;75.80;;;;;;4962047;28;20086;-63
2021/04/19 12:52:04;;;;;;;9.45;5.10;;;21.30;76.10;;;;;;4957710;28;20106;-63
2021/04/19 12:54:29;;;;;;;6.18;5.60;;;22.00;79.90;;;;;;4964358;28;20113;-63
2021/04/19 12:56:55;;;;;;;7.18;6.35;;;21.60;76.30;;;;;;4958754;28;20105;-63
2021/04/19 12:59:21;;;;;;;6.55;6.03;;;22.20;75.90;;;;;;4969995;28;20500;-64
2021/04/19 13:01:47;;;;;;;6.10;5.60;;;21.30;76.60;;;;;;4971027;28;20522;-63